sensor_id;sensor_type;location;lat;lon;timestamp;temperature;humidity
10788;DHT22;5446;50.826;4.380;2023-03-03T00:00:35;2.60;99.90
10788;DHT22;5446;50.826;4.380;2023-03-03T00:03:05;2.60;99.90
10788;DHT22;5446;50.826;4.380;2023-03-03T00:05:32;2.60;99.90
10788;DHT22;5446;50.826;4.380;2023-03-03T00:07:59;2.50;99.90
10788;DHT22;5446;50.826;4.380;2023-03-03T00:10:25;2.50;99.90
10788;DHT22;5446;50.826;4.380;2023-03-03T00:12:51;2.50;99.90
10788;DHT22;5446;50.826;4.380;2023-03-03T00:15:22;2.40;99.90
10788;DHT22;5446;50.826;4.380;2023-03-03T00:17:49;2.40;99.90
10788;DHT22;5446;50.826;4.380;2023-03-03T00:20:35;2.40;99.90
10788;DHT22;5446;50.826;4.380;2023-03-03T00:23:19;2.30;99.90
10788;DHT22;5446;50.826;4.380;2023-03-03T00:25:50;2.30;99.90
10788;DHT22;5446;50.826;4.380;2023-03-03T00:28:26;2.30;99.90
10788;DHT22;5446;50.826;4.380;2023-03-03T00:30:54;2.30;99.90
10788;DHT22;5446;50.826;4.380;2023-03-03T00:33:30;2.20;99.90
10788;DHT22;5446;50.826;4.380;2023-03-03T00:36:29;2.20;99.90
10788;DHT22;5446;50.826;4.380;2023-03-03T00:41:46;2.10;99.90
10788;DHT22;5446;50.826;4.380;2023-03-03T00:44:37;2.10;99.90
10788;DHT22;5446;50.826;4.380;2023-03-03T00:49:59;2.10;99.90
10788;DHT22;5446;50.826;4.380;2023-03-03T00:52:43;2.00;99.90
10788;DHT22;5446;50.826;4.380;2023-03-03T00:55:10;2.00;99.90
10788;DHT22;5446;50.826;4.380;2023-03-03T00:57:36;2.00;99.90
10788;DHT22;5446;50.826;4.380;2023-03-03T01:00:03;2.00;99.90
10788;DHT22;5446;50.826;4.380;2023-03-03T01:02:29;1.90;99.90
10788;DHT22;5446;50.826;4.380;2023-03-03T01:04:55;1.90;99.90
10788;DHT22;5446;50.826;4.380;2023-03-03T01:07:22;1.90;99.90
10788;DHT22;5446;50.826;4.380;2023-03-03T01:09:48;1.90;99.90
10788;DHT22;5446;50.826;4.380;2023-03-03T01:12:14;1.90;99.90
10788;DHT22;5446;50.826;4.380;2023-03-03T01:14:41;1.80;99.90
10788;DHT22;5446;50.826;4.380;2023-03-03T01:17:07;1.80;99.90
10788;DHT22;5446;50.826;4.380;2023-03-03T01:19:34;1.80;99.90
10788;DHT22;5446;50.826;4.380;2023-03-03T01:22:00;1.80;99.90
10788;DHT22;5446;50.826;4.380;2023-03-03T01:24:25;1.80;99.90
10788;DHT22;5446;50.826;4.380;2023-03-03T01:26:51;1.80;99.90
10788;DHT22;5446;50.826;4.380;2023-03-03T01:29:18;1.70;99.90
10788;DHT22;5446;50.826;4.380;2023-03-03T01:31:43;1.70;99.90
10788;DHT22;5446;50.826;4.380;2023-03-03T01:34:10;1.70;99.90
10788;DHT22;5446;50.826;4.380;2023-03-03T01:36:36;1.70;99.90
10788;DHT22;5446;50.826;4.380;2023-03-03T01:39:03;1.60;99.90
10788;DHT22;5446;50.826;4.380;2023-03-03T01:41:30;1.60;99.90
10788;DHT22;5446;50.826;4.380;2023-03-03T01:43:58;1.60;99.90
10788;DHT22;5446;50.826;4.380;2023-03-03T01:46:33;1.60;99.90
10788;DHT22;5446;50.826;4.380;2023-03-03T01:49:04;1.60;99.90
10788;DHT22;5446;50.826;4.380;2023-03-03T01:51:34;1.60;99.90
10788;DHT22;5446;50.826;4.380;2023-03-03T01:54:11;1.50;99.90
10788;DHT22;5446;50.826;4.380;2023-03-03T01:56:40;1.50;99.90
10788;DHT22;5446;50.826;4.380;2023-03-03T01:59:14;1.50;99.90
10788;DHT22;5446;50.826;4.380;2023-03-03T02:01:42;1.50;99.90
10788;DHT22;5446;50.826;4.380;2023-03-03T02:04:08;1.50;99.90
10788;DHT22;5446;50.826;4.380;2023-03-03T02:06:37;1.40;99.90
10788;DHT22;5446;50.826;4.380;2023-03-03T02:11:37;1.40;99.90
10788;DHT22;5446;50.826;4.380;2023-03-03T02:14:03;1.40;99.90
10788;DHT22;5446;50.826;4.380;2023-03-03T02:16:29;1.40;99.90
10788;DHT22;5446;50.826;4.380;2023-03-03T02:18:55;1.40;99.90
10788;DHT22;5446;50.826;4.380;2023-03-03T02:21:23;1.40;99.90
10788;DHT22;5446;50.826;4.380;2023-03-03T02:26:36;1.40;99.90
10788;DHT22;5446;50.826;4.380;2023-03-03T02:29:03;1.50;99.90
10788;DHT22;5446;50.826;4.380;2023-03-03T02:31:31;1.50;99.90
10788;DHT22;5446;50.826;4.380;2023-03-03T02:33:57;1.50;99.90
10788;DHT22;5446;50.826;4.380;2023-03-03T02:36:28;1.50;99.90
10788;DHT22;5446;50.826;4.380;2023-03-03T02:39:17;1.40;99.90
10788;DHT22;5446;50.826;4.380;2023-03-03T02:42:07;1.50;99.90
10788;DHT22;5446;50.826;4.380;2023-03-03T02:44:35;1.50;99.90
10788;DHT22;5446;50.826;4.380;2023-03-03T02:47:01;1.40;99.90
10788;DHT22;5446;50.826;4.380;2023-03-03T02:49:29;1.50;99.90
10788;DHT22;5446;50.826;4.380;2023-03-03T02:51:59;1.50;99.90
10788;DHT22;5446;50.826;4.380;2023-03-03T02:54:27;1.40;99.90
10788;DHT22;5446;50.826;4.380;2023-03-03T02:56:56;1.50;99.90
10788;DHT22;5446;50.826;4.380;2023-03-03T02:59:22;1.50;99.90
10788;DHT22;5446;50.826;4.380;2023-03-03T03:01:48;1.50;99.90
10788;DHT22;5446;50.826;4.380;2023-03-03T03:04:19;1.40;99.90
10788;DHT22;5446;50.826;4.380;2023-03-03T03:06:45;1.40;99.90
10788;DHT22;5446;50.826;4.380;2023-03-03T03:09:13;1.40;99.90
10788;DHT22;5446;50.826;4.380;2023-03-03T03:11:39;1.40;99.90
10788;DHT22;5446;50.826;4.380;2023-03-03T03:14:07;1.50;99.90
10788;DHT22;5446;50.826;4.380;2023-03-03T03:16:33;1.50;99.90
10788;DHT22;5446;50.826;4.380;2023-03-03T03:19:00;1.50;99.90
10788;DHT22;5446;50.826;4.380;2023-03-03T03:21:28;1.40;99.90
10788;DHT22;5446;50.826;4.380;2023-03-03T03:23:54;1.40;99.90
10788;DHT22;5446;50.826;4.380;2023-03-03T03:26:21;1.30;99.90
10788;DHT22;5446;50.826;4.380;2023-03-03T03:28:47;1.30;99.90
10788;DHT22;5446;50.826;4.380;2023-03-03T03:31:13;1.30;99.90
10788;DHT22;5446;50.826;4.380;2023-03-03T03:33:39;1.40;99.90
10788;DHT22;5446;50.826;4.380;2023-03-03T03:36:05;1.50;99.90
10788;DHT22;5446;50.826;4.380;2023-03-03T03:38:32;1.50;99.90
10788;DHT22;5446;50.826;4.380;2023-03-03T03:40:58;1.50;99.90
10788;DHT22;5446;50.826;4.380;2023-03-03T03:43:24;1.40;99.90
10788;DHT22;5446;50.826;4.380;2023-03-03T03:45:50;1.40;99.90
10788;DHT22;5446;50.826;4.380;2023-03-03T03:48:16;1.50;99.90
10788;DHT22;5446;50.826;4.380;2023-03-03T03:54:07;1.50;99.90
10788;DHT22;5446;50.826;4.380;2023-03-03T03:56:32;1.50;99.90
10788;DHT22;5446;50.826;4.380;2023-03-03T03:58:58;1.40;99.90
10788;DHT22;5446;50.826;4.380;2023-03-03T04:01:25;1.40;99.90
10788;DHT22;5446;50.826;4.380;2023-03-03T04:03:52;1.30;99.90
10788;DHT22;5446;50.826;4.380;2023-03-03T04:09:42;1.30;99.90
10788;DHT22;5446;50.826;4.380;2023-03-03T04:12:08;1.30;99.90
10788;DHT22;5446;50.826;4.380;2023-03-03T04:14:34;1.30;99.90
10788;DHT22;5446;50.826;4.380;2023-03-03T04:17:00;1.20;99.90
10788;DHT22;5446;50.826;4.380;2023-03-03T04:19:26;1.20;99.90
10788;DHT22;5446;50.826;4.380;2023-03-03T04:21:52;1.20;99.90
10788;DHT22;5446;50.826;4.380;2023-03-03T04:24:17;1.20;99.90
10788;DHT22;5446;50.826;4.380;2023-03-03T04:26:44;1.20;99.90
10788;DHT22;5446;50.826;4.380;2023-03-03T04:29:10;1.10;99.90
10788;DHT22;5446;50.826;4.380;2023-03-03T04:31:36;1.20;99.90
10788;DHT22;5446;50.826;4.380;2023-03-03T04:34:02;1.10;99.90
10788;DHT22;5446;50.826;4.380;2023-03-03T04:36:27;1.20;99.90
10788;DHT22;5446;50.826;4.380;2023-03-03T04:38:54;1.20;99.90
10788;DHT22;5446;50.826;4.380;2023-03-03T04:41:20;1.20;99.90
10788;DHT22;5446;50.826;4.380;2023-03-03T04:43:46;1.00;99.90
10788;DHT22;5446;50.826;4.380;2023-03-03T04:46:11;0.70;99.90
10788;DHT22;5446;50.826;4.380;2023-03-03T04:48:37;0.70;99.90
10788;DHT22;5446;50.826;4.380;2023-03-03T04:51:03;0.60;99.90
10788;DHT22;5446;50.826;4.380;2023-03-03T04:53:29;0.60;99.90
10788;DHT22;5446;50.826;4.380;2023-03-03T04:55:55;0.70;99.90
10788;DHT22;5446;50.826;4.380;2023-03-03T04:58:21;0.70;99.90
10788;DHT22;5446;50.826;4.380;2023-03-03T05:00:53;0.70;99.90
10788;DHT22;5446;50.826;4.380;2023-03-03T05:03:19;0.60;99.90
10788;DHT22;5446;50.826;4.380;2023-03-03T05:05:46;0.50;99.90
10788;DHT22;5446;50.826;4.380;2023-03-03T05:08:12;0.40;99.90
10788;DHT22;5446;50.826;4.380;2023-03-03T05:10:38;0.50;99.90
10788;DHT22;5446;50.826;4.380;2023-03-03T05:13:05;0.60;99.90
10788;DHT22;5446;50.826;4.380;2023-03-03T05:15:31;0.60;99.90
10788;DHT22;5446;50.826;4.380;2023-03-03T05:17:57;0.60;99.90
10788;DHT22;5446;50.826;4.380;2023-03-03T05:20:24;0.70;99.90
10788;DHT22;5446;50.826;4.380;2023-03-03T05:22:50;0.70;99.90
10788;DHT22;5446;50.826;4.380;2023-03-03T05:25:16;0.60;99.90
10788;DHT22;5446;50.826;4.380;2023-03-03T05:27:41;0.70;99.90
10788;DHT22;5446;50.826;4.380;2023-03-03T05:30:09;0.70;99.90
10788;DHT22;5446;50.826;4.380;2023-03-03T05:32:35;0.70;99.90
10788;DHT22;5446;50.826;4.380;2023-03-03T05:35:02;0.70;99.90
10788;DHT22;5446;50.826;4.380;2023-03-03T05:37:28;0.60;99.90
10788;DHT22;5446;50.826;4.380;2023-03-03T05:39:53;0.60;99.90
10788;DHT22;5446;50.826;4.380;2023-03-03T05:42:19;0.60;99.90
10788;DHT22;5446;50.826;4.380;2023-03-03T05:44:45;0.70;99.90
10788;DHT22;5446;50.826;4.380;2023-03-03T05:47:10;0.60;99.90
10788;DHT22;5446;50.826;4.380;2023-03-03T05:49:36;0.70;99.90
10788;DHT22;5446;50.826;4.380;2023-03-03T05:52:02;0.70;99.90
10788;DHT22;5446;50.826;4.380;2023-03-03T05:54:28;0.70;99.90
10788;DHT22;5446;50.826;4.380;2023-03-03T05:56:54;0.70;99.90
10788;DHT22;5446;50.826;4.380;2023-03-03T05:59:22;0.70;99.90
10788;DHT22;5446;50.826;4.380;2023-03-03T06:01:48;0.70;99.90
10788;DHT22;5446;50.826;4.380;2023-03-03T06:04:14;0.70;99.90
10788;DHT22;5446;50.826;4.380;2023-03-03T06:06:40;0.70;99.90
10788;DHT22;5446;50.826;4.380;2023-03-03T06:09:06;0.70;99.90
10788;DHT22;5446;50.826;4.380;2023-03-03T06:11:31;0.80;99.90
10788;DHT22;5446;50.826;4.380;2023-03-03T06:13:57;0.80;99.90
10788;DHT22;5446;50.826;4.380;2023-03-03T06:16:23;0.70;99.90
10788;DHT22;5446;50.826;4.380;2023-03-03T06:18:48;0.70;99.90
10788;DHT22;5446;50.826;4.380;2023-03-03T06:21:14;0.80;99.90
10788;DHT22;5446;50.826;4.380;2023-03-03T06:23:40;0.70;99.90
10788;DHT22;5446;50.826;4.380;2023-03-03T06:26:06;0.70;99.90
10788;DHT22;5446;50.826;4.380;2023-03-03T06:28:32;0.70;99.90
10788;DHT22;5446;50.826;4.380;2023-03-03T06:30:58;0.70;99.90
10788;DHT22;5446;50.826;4.380;2023-03-03T06:33:24;0.70;99.90
10788;DHT22;5446;50.826;4.380;2023-03-03T06:35:51;0.70;99.90
10788;DHT22;5446;50.826;4.380;2023-03-03T06:38:17;0.60;99.90
10788;DHT22;5446;50.826;4.380;2023-03-03T06:40:44;0.70;99.90
10788;DHT22;5446;50.826;4.380;2023-03-03T06:43:11;0.80;99.90
10788;DHT22;5446;50.826;4.380;2023-03-03T06:45:37;0.80;99.90
10788;DHT22;5446;50.826;4.380;2023-03-03T06:48:03;0.70;99.90
10788;DHT22;5446;50.826;4.380;2023-03-03T06:50:29;0.70;99.90
10788;DHT22;5446;50.826;4.380;2023-03-03T06:53:14;0.80;99.90
10788;DHT22;5446;50.826;4.380;2023-03-03T06:55:40;0.80;99.90
10788;DHT22;5446;50.826;4.380;2023-03-03T06:58:20;0.80;99.90
10788;DHT22;5446;50.826;4.380;2023-03-03T07:00:59;0.90;99.90
10788;DHT22;5446;50.826;4.380;2023-03-03T07:03:33;0.90;99.90
10788;DHT22;5446;50.826;4.380;2023-03-03T07:05:59;0.90;99.90
10788;DHT22;5446;50.826;4.380;2023-03-03T07:08:29;0.90;99.90
10788;DHT22;5446;50.826;4.380;2023-03-03T07:11:00;0.90;99.90
10788;DHT22;5446;50.826;4.380;2023-03-03T07:13:31;0.80;99.90
10788;DHT22;5446;50.826;4.380;2023-03-03T07:16:01;0.70;99.90
10788;DHT22;5446;50.826;4.380;2023-03-03T07:18:44;0.80;99.90
10788;DHT22;5446;50.826;4.380;2023-03-03T07:21:30;0.90;99.90
10788;DHT22;5446;50.826;4.380;2023-03-03T07:23:59;1.00;99.90
10788;DHT22;5446;50.826;4.380;2023-03-03T07:26:30;1.00;99.90
10788;DHT22;5446;50.826;4.380;2023-03-03T07:29:02;1.00;99.90
10788;DHT22;5446;50.826;4.380;2023-03-03T07:31:39;1.00;99.90
10788;DHT22;5446;50.826;4.380;2023-03-03T07:34:35;0.80;99.90
10788;DHT22;5446;50.826;4.380;2023-03-03T07:37:10;0.70;99.90
10788;DHT22;5446;50.826;4.380;2023-03-03T07:39:39;0.80;99.90
10788;DHT22;5446;50.826;4.380;2023-03-03T07:42:26;0.80;99.90
10788;DHT22;5446;50.826;4.380;2023-03-03T07:44:58;0.70;99.90
10788;DHT22;5446;50.826;4.380;2023-03-03T07:47:35;0.80;99.90
10788;DHT22;5446;50.826;4.380;2023-03-03T07:50:14;0.90;99.90
10788;DHT22;5446;50.826;4.380;2023-03-03T07:52:43;0.90;99.90
10788;DHT22;5446;50.826;4.380;2023-03-03T07:55:46;0.90;99.90
10788;DHT22;5446;50.826;4.380;2023-03-03T08:03:13;0.90;99.90
10788;DHT22;5446;50.826;4.380;2023-03-03T08:05:50;0.80;99.90
10788;DHT22;5446;50.826;4.380;2023-03-03T08:08:38;0.70;99.90
10788;DHT22;5446;50.826;4.380;2023-03-03T08:11:25;0.80;99.90
10788;DHT22;5446;50.826;4.380;2023-03-03T08:14:09;0.80;99.90
10788;DHT22;5446;50.826;4.380;2023-03-03T08:16:39;0.90;99.90
10788;DHT22;5446;50.826;4.380;2023-03-03T08:19:05;0.80;99.90
10788;DHT22;5446;50.826;4.380;2023-03-03T08:21:32;0.80;99.90
10788;DHT22;5446;50.826;4.380;2023-03-03T08:24:00;1.00;99.90
10788;DHT22;5446;50.826;4.380;2023-03-03T08:26:26;1.00;99.90
10788;DHT22;5446;50.826;4.380;2023-03-03T08:28:52;1.00;99.90
10788;DHT22;5446;50.826;4.380;2023-03-03T08:31:19;1.00;99.90
10788;DHT22;5446;50.826;4.380;2023-03-03T08:33:45;1.10;99.90
10788;DHT22;5446;50.826;4.380;2023-03-03T08:36:11;1.10;99.90
10788;DHT22;5446;50.826;4.380;2023-03-03T08:38:38;1.10;99.90
10788;DHT22;5446;50.826;4.380;2023-03-03T08:41:04;1.00;99.90
10788;DHT22;5446;50.826;4.380;2023-03-03T08:43:30;0.90;99.90
10788;DHT22;5446;50.826;4.380;2023-03-03T08:46:02;0.80;99.90
10788;DHT22;5446;50.826;4.380;2023-03-03T08:48:30;1.00;99.90
10788;DHT22;5446;50.826;4.380;2023-03-03T08:50:56;1.00;99.90
10788;DHT22;5446;50.826;4.380;2023-03-03T08:53:23;1.00;99.90
10788;DHT22;5446;50.826;4.380;2023-03-03T08:55:49;0.90;99.90
10788;DHT22;5446;50.826;4.380;2023-03-03T08:58:17;1.10;99.90
10788;DHT22;5446;50.826;4.380;2023-03-03T09:00:43;1.10;99.90
10788;DHT22;5446;50.826;4.380;2023-03-03T09:03:09;1.10;99.90
10788;DHT22;5446;50.826;4.380;2023-03-03T09:05:36;1.10;99.90
10788;DHT22;5446;50.826;4.380;2023-03-03T09:08:03;1.00;99.90
10788;DHT22;5446;50.826;4.380;2023-03-03T09:10:29;1.10;99.90
10788;DHT22;5446;50.826;4.380;2023-03-03T09:13:03;1.20;99.90
10788;DHT22;5446;50.826;4.380;2023-03-03T09:15:33;1.20;99.90
10788;DHT22;5446;50.826;4.380;2023-03-03T09:18:16;1.20;99.90
10788;DHT22;5446;50.826;4.380;2023-03-03T09:20:50;1.20;99.90
10788;DHT22;5446;50.826;4.380;2023-03-03T09:23:32;1.10;99.90
10788;DHT22;5446;50.826;4.380;2023-03-03T09:28:42;1.30;99.90
10788;DHT22;5446;50.826;4.380;2023-03-03T09:31:22;1.30;99.90
10788;DHT22;5446;50.826;4.380;2023-03-03T09:33:49;1.30;99.90
10788;DHT22;5446;50.826;4.380;2023-03-03T09:36:36;1.30;99.90
10788;DHT22;5446;50.826;4.380;2023-03-03T09:39:18;1.40;99.90
10788;DHT22;5446;50.826;4.380;2023-03-03T09:56:27;1.60;99.90
10788;DHT22;5446;50.826;4.380;2023-03-03T10:12:58;2.00;99.90
10788;DHT22;5446;50.826;4.380;2023-03-03T10:15:39;2.00;99.90
10788;DHT22;5446;50.826;4.380;2023-03-03T10:18:19;1.90;99.90
10788;DHT22;5446;50.826;4.380;2023-03-03T10:21:01;2.00;99.90
10788;DHT22;5446;50.826;4.380;2023-03-03T10:45:30;2.40;99.90
10788;DHT22;5446;50.826;4.380;2023-03-03T10:48:21;2.40;99.90
10788;DHT22;5446;50.826;4.380;2023-03-03T10:51:17;2.40;99.90
10788;DHT22;5446;50.826;4.380;2023-03-03T10:59:17;2.60;99.90
10788;DHT22;5446;50.826;4.380;2023-03-03T11:02:25;2.60;99.90
10788;DHT22;5446;50.826;4.380;2023-03-03T11:07:41;2.70;99.90
10788;DHT22;5446;50.826;4.380;2023-03-03T11:10:20;2.80;99.90
10788;DHT22;5446;50.826;4.380;2023-03-03T11:15:39;2.70;99.90
10788;DHT22;5446;50.826;4.380;2023-03-03T11:26:24;3.50;99.90
10788;DHT22;5446;50.826;4.380;2023-03-03T11:37:00;3.40;99.90
10788;DHT22;5446;50.826;4.380;2023-03-03T11:39:28;3.50;99.90
10788;DHT22;5446;50.826;4.380;2023-03-03T11:45:12;3.50;99.90
10788;DHT22;5446;50.826;4.380;2023-03-03T11:50:59;3.20;99.90
10788;DHT22;5446;50.826;4.380;2023-03-03T11:59:08;3.70;99.90
10788;DHT22;5446;50.826;4.380;2023-03-03T12:01:56;3.60;99.90
10788;DHT22;5446;50.826;4.380;2023-03-03T12:04:38;4.10;99.90
10788;DHT22;5446;50.826;4.380;2023-03-03T12:10:02;4.30;99.90
10788;DHT22;5446;50.826;4.380;2023-03-03T12:15:01;4.30;99.90
10788;DHT22;5446;50.826;4.380;2023-03-03T12:20:20;5.00;99.90
10788;DHT22;5446;50.826;4.380;2023-03-03T12:28:38;5.20;99.90
10788;DHT22;5446;50.826;4.380;2023-03-03T12:31:29;4.80;99.90
10788;DHT22;5446;50.826;4.380;2023-03-03T12:34:13;4.70;99.90
10788;DHT22;5446;50.826;4.380;2023-03-03T12:37:17;4.60;99.90
10788;DHT22;5446;50.826;4.380;2023-03-03T12:40:08;4.90;99.90
10788;DHT22;5446;50.826;4.380;2023-03-03T12:48:16;5.00;99.90
10788;DHT22;5446;50.826;4.380;2023-03-03T12:53:54;4.80;99.90
10788;DHT22;5446;50.826;4.380;2023-03-03T12:56:37;4.70;99.90
10788;DHT22;5446;50.826;4.380;2023-03-03T13:02:11;4.90;99.90
10788;DHT22;5446;50.826;4.380;2023-03-03T13:10:07;4.90;99.90
10788;DHT22;5446;50.826;4.380;2023-03-03T13:13:00;4.70;99.90
10788;DHT22;5446;50.826;4.380;2023-03-03T13:15:41;4.60;99.90
10788;DHT22;5446;50.826;4.380;2023-03-03T13:21:11;4.70;99.90
10788;DHT22;5446;50.826;4.380;2023-03-03T13:26:54;4.90;99.90
10788;DHT22;5446;50.826;4.380;2023-03-03T13:29:27;4.70;99.90
10788;DHT22;5446;50.826;4.380;2023-03-03T13:31:58;4.90;99.90
10788;DHT22;5446;50.826;4.380;2023-03-03T13:34:32;5.10;99.90
10788;DHT22;5446;50.826;4.380;2023-03-03T13:37:19;5.30;99.90
10788;DHT22;5446;50.826;4.380;2023-03-03T13:39:59;5.40;99.90
10788;DHT22;5446;50.826;4.380;2023-03-03T13:42:38;5.50;99.90
10788;DHT22;5446;50.826;4.380;2023-03-03T13:45:40;5.40;99.90
10788;DHT22;5446;50.826;4.380;2023-03-03T13:51:02;5.40;99.90
10788;DHT22;5446;50.826;4.380;2023-03-03T13:59:20;5.20;99.90
10788;DHT22;5446;50.826;4.380;2023-03-03T14:05:03;5.40;99.90
10788;DHT22;5446;50.826;4.380;2023-03-03T14:10:25;5.60;99.90
10788;DHT22;5446;50.826;4.380;2023-03-03T14:13:07;5.60;99.90
10788;DHT22;5446;50.826;4.380;2023-03-03T14:20:51;5.80;99.90
10788;DHT22;5446;50.826;4.380;2023-03-03T14:25:52;5.80;99.90
10788;DHT22;5446;50.826;4.380;2023-03-03T14:28:20;5.90;99.90
10788;DHT22;5446;50.826;4.380;2023-03-03T14:30:46;5.90;99.90
10788;DHT22;5446;50.826;4.380;2023-03-03T14:35:49;6.10;99.90
10788;DHT22;5446;50.826;4.380;2023-03-03T14:38:23;6.00;99.90
10788;DHT22;5446;50.826;4.380;2023-03-03T14:41:33;6.00;99.90
10788;DHT22;5446;50.826;4.380;2023-03-03T14:44:20;5.90;99.90
10788;DHT22;5446;50.826;4.380;2023-03-03T14:49:34;6.00;99.90
10788;DHT22;5446;50.826;4.380;2023-03-03T14:52:24;6.20;99.90
10788;DHT22;5446;50.826;4.380;2023-03-03T14:54:57;6.10;99.90
10788;DHT22;5446;50.826;4.380;2023-03-03T14:57:40;6.20;99.90
10788;DHT22;5446;50.826;4.380;2023-03-03T15:00:29;6.10;99.90
10788;DHT22;5446;50.826;4.380;2023-03-03T15:03:19;6.20;99.90
10788;DHT22;5446;50.826;4.380;2023-03-03T15:05:55;6.20;99.90
10788;DHT22;5446;50.826;4.380;2023-03-03T15:08:35;6.20;99.90
10788;DHT22;5446;50.826;4.380;2023-03-03T15:11:25;6.30;99.90
10788;DHT22;5446;50.826;4.380;2023-03-03T15:13:52;6.20;99.90
10788;DHT22;5446;50.826;4.380;2023-03-03T15:16:31;6.30;99.90
10788;DHT22;5446;50.826;4.380;2023-03-03T15:19:35;6.40;99.90
10788;DHT22;5446;50.826;4.380;2023-03-03T15:22:36;6.50;99.90
10788;DHT22;5446;50.826;4.380;2023-03-03T15:28:05;6.40;99.90
10788;DHT22;5446;50.826;4.380;2023-03-03T15:36:08;6.30;99.90
10788;DHT22;5446;50.826;4.380;2023-03-03T15:41:11;6.40;99.90
10788;DHT22;5446;50.826;4.380;2023-03-03T15:51:20;6.70;99.90
10788;DHT22;5446;50.826;4.380;2023-03-03T15:56:55;6.60;99.90
10788;DHT22;5446;50.826;4.380;2023-03-03T16:04:30;6.60;99.90
10788;DHT22;5446;50.826;4.380;2023-03-03T16:10:34;6.60;99.90
10788;DHT22;5446;50.826;4.380;2023-03-03T16:31:16;6.90;99.90
10788;DHT22;5446;50.826;4.380;2023-03-03T16:37:19;6.60;99.90
10788;DHT22;5446;50.826;4.380;2023-03-03T16:42:39;6.50;99.90
10788;DHT22;5446;50.826;4.380;2023-03-03T16:45:25;6.40;99.90
10788;DHT22;5446;50.826;4.380;2023-03-03T16:53:49;6.30;99.90
10788;DHT22;5446;50.826;4.380;2023-03-03T16:56:22;6.30;99.90
10788;DHT22;5446;50.826;4.380;2023-03-03T16:59:05;6.30;99.90
10788;DHT22;5446;50.826;4.380;2023-03-03T17:18:12;6.10;99.90
10788;DHT22;5446;50.826;4.380;2023-03-03T17:20:59;6.10;99.90
10788;DHT22;5446;50.826;4.380;2023-03-03T17:34:29;6.00;99.90
10788;DHT22;5446;50.826;4.380;2023-03-03T17:46:49;6.00;99.90
10788;DHT22;5446;50.826;4.380;2023-03-03T17:55:40;5.90;99.90
10788;DHT22;5446;50.826;4.380;2023-03-03T18:04:03;5.80;99.90
10788;DHT22;5446;50.826;4.380;2023-03-03T18:09:24;5.80;99.90
10788;DHT22;5446;50.826;4.380;2023-03-03T18:22:49;5.60;99.90
10788;DHT22;5446;50.826;4.380;2023-03-03T18:25:25;5.60;99.90
10788;DHT22;5446;50.826;4.380;2023-03-03T18:28:22;5.60;99.90
10788;DHT22;5446;50.826;4.380;2023-03-03T18:30:52;5.60;99.90
10788;DHT22;5446;50.826;4.380;2023-03-03T18:38:57;5.70;99.90
10788;DHT22;5446;50.826;4.380;2023-03-03T18:41:30;5.70;99.90
10788;DHT22;5446;50.826;4.380;2023-03-03T18:44:28;5.70;99.90
10788;DHT22;5446;50.826;4.380;2023-03-03T18:46:55;5.80;99.90
10788;DHT22;5446;50.826;4.380;2023-03-03T18:49:56;5.80;99.90
10788;DHT22;5446;50.826;4.380;2023-03-03T18:52:33;5.90;99.90
10788;DHT22;5446;50.826;4.380;2023-03-03T18:57:34;5.90;99.90
10788;DHT22;5446;50.826;4.380;2023-03-03T19:00:22;5.90;99.90
10788;DHT22;5446;50.826;4.380;2023-03-03T19:02:58;5.90;99.90
10788;DHT22;5446;50.826;4.380;2023-03-03T19:05:35;6.00;99.90
10788;DHT22;5446;50.826;4.380;2023-03-03T19:08:23;6.00;99.90
10788;DHT22;5446;50.826;4.380;2023-03-03T19:10:50;6.00;99.90
10788;DHT22;5446;50.826;4.380;2023-03-03T19:16:32;6.00;99.90
10788;DHT22;5446;50.826;4.380;2023-03-03T19:24:00;6.10;99.90
10788;DHT22;5446;50.826;4.380;2023-03-03T19:38:08;6.10;99.90
10788;DHT22;5446;50.826;4.380;2023-03-03T19:52:12;6.10;99.90
10788;DHT22;5446;50.826;4.380;2023-03-03T20:00:40;6.20;99.90
10788;DHT22;5446;50.826;4.380;2023-03-03T20:16:53;6.10;99.90
10788;DHT22;5446;50.826;4.380;2023-03-03T20:19:47;6.20;99.90
10788;DHT22;5446;50.826;4.380;2023-03-03T20:22:46;6.20;99.90
10788;DHT22;5446;50.826;4.380;2023-03-03T20:25:36;6.20;99.90
10788;DHT22;5446;50.826;4.380;2023-03-03T20:28:29;6.20;99.90
10788;DHT22;5446;50.826;4.380;2023-03-03T20:34:07;6.20;99.90
10788;DHT22;5446;50.826;4.380;2023-03-03T20:37:00;6.20;99.90
10788;DHT22;5446;50.826;4.380;2023-03-03T20:54:16;6.00;99.90
10788;DHT22;5446;50.826;4.380;2023-03-03T20:56:55;6.00;99.90
10788;DHT22;5446;50.826;4.380;2023-03-03T21:05:07;5.90;99.90
10788;DHT22;5446;50.826;4.380;2023-03-03T21:07:33;5.90;99.90
10788;DHT22;5446;50.826;4.380;2023-03-03T21:10:28;5.90;99.90
10788;DHT22;5446;50.826;4.380;2023-03-03T21:12:56;5.90;99.90
10788;DHT22;5446;50.826;4.380;2023-03-03T21:15:31;5.80;99.90
10788;DHT22;5446;50.826;4.380;2023-03-03T21:17:59;5.80;99.90
10788;DHT22;5446;50.826;4.380;2023-03-03T21:20:32;5.80;99.90
10788;DHT22;5446;50.826;4.380;2023-03-03T21:23:07;5.80;99.90
10788;DHT22;5446;50.826;4.380;2023-03-03T21:28:20;5.80;99.90
10788;DHT22;5446;50.826;4.380;2023-03-03T21:31:09;5.90;99.90
10788;DHT22;5446;50.826;4.380;2023-03-03T21:39:06;5.80;99.90
10788;DHT22;5446;50.826;4.380;2023-03-03T21:41:58;5.80;99.90
10788;DHT22;5446;50.826;4.380;2023-03-03T21:44:42;5.80;99.90
10788;DHT22;5446;50.826;4.380;2023-03-03T21:47:13;5.90;99.90
10788;DHT22;5446;50.826;4.380;2023-03-03T21:49:44;5.80;99.90
10788;DHT22;5446;50.826;4.380;2023-03-03T21:52:12;5.90;99.90
10788;DHT22;5446;50.826;4.380;2023-03-03T21:54:39;5.90;99.90
10788;DHT22;5446;50.826;4.380;2023-03-03T22:00:27;5.80;99.90
10788;DHT22;5446;50.826;4.380;2023-03-03T22:02:52;5.90;99.90
10788;DHT22;5446;50.826;4.380;2023-03-03T22:05:19;5.90;99.90
10788;DHT22;5446;50.826;4.380;2023-03-03T22:07:45;5.90;99.90
10788;DHT22;5446;50.826;4.380;2023-03-03T22:10:11;5.90;99.90
10788;DHT22;5446;50.826;4.380;2023-03-03T22:12:37;5.80;99.90
10788;DHT22;5446;50.826;4.380;2023-03-03T22:15:02;5.80;99.90
10788;DHT22;5446;50.826;4.380;2023-03-03T22:17:28;5.80;99.90
10788;DHT22;5446;50.826;4.380;2023-03-03T22:19:54;5.80;99.90
10788;DHT22;5446;50.826;4.380;2023-03-03T22:22:20;5.80;99.90
10788;DHT22;5446;50.826;4.380;2023-03-03T22:24:46;5.70;99.90
10788;DHT22;5446;50.826;4.380;2023-03-03T22:27:12;5.70;99.90
10788;DHT22;5446;50.826;4.380;2023-03-03T22:29:38;5.70;99.90
10788;DHT22;5446;50.826;4.380;2023-03-03T22:32:04;5.70;99.90
10788;DHT22;5446;50.826;4.380;2023-03-03T22:34:30;5.60;99.90
10788;DHT22;5446;50.826;4.380;2023-03-03T22:36:56;5.70;99.90
10788;DHT22;5446;50.826;4.380;2023-03-03T22:39:21;5.60;99.90
10788;DHT22;5446;50.826;4.380;2023-03-03T22:41:47;5.60;99.90
10788;DHT22;5446;50.826;4.380;2023-03-03T22:44:13;5.70;99.90
10788;DHT22;5446;50.826;4.380;2023-03-03T22:46:38;5.60;99.90
10788;DHT22;5446;50.826;4.380;2023-03-03T22:49:04;5.60;99.90
10788;DHT22;5446;50.826;4.380;2023-03-03T22:51:30;5.50;99.90
10788;DHT22;5446;50.826;4.380;2023-03-03T22:53:56;5.50;99.90
10788;DHT22;5446;50.826;4.380;2023-03-03T22:56:22;5.50;99.90
10788;DHT22;5446;50.826;4.380;2023-03-03T22:58:48;5.40;99.90
10788;DHT22;5446;50.826;4.380;2023-03-03T23:01:14;5.40;99.90
10788;DHT22;5446;50.826;4.380;2023-03-03T23:03:39;5.30;99.90
10788;DHT22;5446;50.826;4.380;2023-03-03T23:06:05;5.30;99.90
10788;DHT22;5446;50.826;4.380;2023-03-03T23:08:31;5.30;99.90
10788;DHT22;5446;50.826;4.380;2023-03-03T23:10:57;5.30;99.90